Latest Coastal Weather Observations for Friendly Beaches

IDT60701

Issued at 8:52 pm EST Friday 19 July 2019 (issued every 10 minutes, with the page automatically refreshed every 10 minutes)

About coastal observations | Map of coastal stations | Coastal observations for TAS | Marine services | Other Formats
Station Details ID: 092114 Name: FRIENDLY BEACHES Lat: -42.00 Lon: 148.28 Height: 55.0 m
Data from the previous 72 hours. | See also: Recent months at Friendly Beaches
Date/Time
EST
Wind Sea
Height
m
Swell Vis
km
Cloud Weather Temp
°C
Press
hPa
Rain since
9am
mm
Dir  Spd
kts
Gust
kts
Height
m
Period
s
Dir
19/08:30pm NW 4 5 - - - - - - - 9.4 1016.4 0.0
19/08:00pm NW 4 5 - - - - - - - 9.4 1016.1 0.0
19/07:30pm NW 4 5 - - - - - - - 9.4 1015.7 0.0
19/07:00pm NW 3 4 - - - - - - - 9.8 1015.4 0.0
19/06:30pm WSW 3 4 - - - - - - - 9.8 1015.3 0.0
19/06:00pm WNW 3 4 - - - - - - - 10.9 1014.9 0.0
19/05:30pm WNW 5 8 - - - - - - - 11.6 1014.4 0.0
19/05:00pm WNW 6 9 - - - - - - - 12.5 1014.0 0.0
19/04:30pm W 2 4 - - - - - - - 13.2 1013.7 0.0
19/04:00pm WSW 7 13 - - - - - - - 13.9 1013.3 0.0
19/03:30pm W 5 9 - - - - - - - 14.3 1012.9 0.0
19/03:00pm W 5 10 - - - - - - - 14.7 1012.5 0.0
19/02:30pm W 7 11 - - - - - - - 14.9 1012.1 0.0
19/02:00pm W 8 16 - - - - - - - 14.7 1011.8 0.0
19/01:30pm W 8 14 - - - - - - - 14.7 1011.6 0.0
19/01:00pm W 8 14 - - - - - - - 14.6 1011.7 0.0
19/12:30pm WSW 7 11 - - - - - - - 14.2 1011.8 0.0
19/12:00pm W 8 17 - - - - - - - 13.8 1011.5 0.0
19/11:30am W 8 17 - - - - - - - 13.4 1011.7 0.0
19/11:00am W 5 9 - - - - - - - 13.4 1012.1 0.0
19/10:30am NW 3 7 - - - - - - - 12.2 1011.9 0.0
19/10:00am WNW 3 7 - - - - - - - 11.2 1011.8 0.0
19/09:30am WNW 3 7 - - - - - - - 10.4 1011.9 0.0
19/09:00am NNE 2 4 - - - - - - - 9.0 1011.3 1.2
19/08:30am W 5 8 - - - - - - - 7.6 1011.0 1.2
19/08:00am WSW 5 9 - - - - - - - 7.7 1010.8 1.2
19/07:30am W 7 12 - - - - - - - 7.7 1010.2 1.2
19/07:00am W 5 8 - - - - - - - 6.7 1010.0 1.2
19/06:30am W 2 3 - - - - - - - 6.3 1009.4 1.2
19/06:00am WSW 4 8 - - - - - - - 6.9 1009.1 1.2
19/05:30am WSW 7 11 - - - - - - - 8.1 1008.6 1.2
19/05:00am W 7 12 - - - - - - - 8.1 1008.2 1.2
19/04:30am W 10 17 - - - - - - - 8.8 1007.3 1.2
19/04:00am WSW 4 8 - - - - - - - 8.0 1007.1 1.2
19/03:30am WSW 9 16 - - - - - - - 8.7 1006.4 1.2
19/03:00am WSW 9 14 - - - - - - - 9.2 1005.8 1.2
19/02:30am WSW 12 20 - - - - - - - 9.5 1004.9 1.2
19/02:00am WSW 11 18 - - - - - - - 9.3 1004.3 1.2
19/01:30am W 8 16 - - - - - - - 9.3 1003.2 1.2
19/01:00am WNW 1 3 - - - - - - - 8.9 1002.8 1.0
19/12:30am SW 4 6 - - - - - - - 9.8 1003.0 0.8
19/12:00am NNE 9 13 - - - - - - - 10.7 1002.5 0.0
 
Date/Time
EST
Wind Sea
Height
m
Swell Vis
km
Cloud Weather Temp
°C
Press
hPa
Rain since
9am
mm
Dir  Spd
kts
Gust
kts
Height
m
Period
s
Dir
18/11:30pm N 9 13 - - - - - - - 11.3 1002.5 0.0
18/11:00pm N 10 20 - - - - - - - 11.2 1002.9 0.0
18/10:30pm N 10 15 - - - - - - - 11.1 1003.4 0.0
18/10:00pm N 7 11 - - - - - - - 11.0 1003.8 0.0
18/09:30pm N 6 10 - - - - - - - 11.4 1004.7 0.0
18/09:00pm N 5 9 - - - - - - - 11.1 1005.0 0.0
18/08:30pm N 4 6 - - - - - - - 10.7 1004.9 0.0
18/08:00pm NNW 8 14 - - - - - - - 11.1 1005.6 0.0
18/07:30pm N 4 10 - - - - - - - 10.2 1005.8 0.0
18/07:00pm WNW 6 11 - - - - - - - 10.2 1006.4 0.0
18/06:30pm WNW 8 15 - - - - - - - 10.3 1006.4 0.0
18/06:00pm WNW 9 15 - - - - - - - 10.1 1006.5 0.0
18/05:30pm WNW 7 13 - - - - - - - 10.0 1006.6 0.0
18/05:00pm NW 6 12 - - - - - - - 10.2 1007.2 0.0
18/04:30pm WNW 4 7 - - - - - - - 10.6 1007.6 0.0
18/04:00pm NW 7 12 - - - - - - - 11.0 1007.4 0.0
18/03:30pm NW 3 5 - - - - - - - 11.2 1007.7 0.0
18/03:00pm W 2 4 - - - - - - - 11.3 1007.7 0.0
18/02:30pm WNW 7 11 - - - - - - - 11.9 1007.9 0.0
18/02:00pm NW 6 14 - - - - - - - 13.5 1008.3 0.0
18/01:30pm NNE 5 8 - - - - - - - 13.4 1008.6 0.0
18/01:00pm N 6 10 - - - - - - - 14.1 1008.7 0.0
18/12:30pm ESE 3 5 - - - - - - - 12.8 1009.1 0.0
18/12:00pm ENE 5 9 - - - - - - - 12.6 1009.2 0.0
18/11:30am W 3 6 - - - - - - - 12.8 1009.8 0.0
18/11:00am W 3 5 - - - - - - - 11.2 1010.2 0.0
18/10:30am W 5 7 - - - - - - - 10.7 1010.5 0.0
18/10:00am WSW 6 10 - - - - - - - 9.8 1010.1 0.0
18/09:30am WSW 6 11 - - - - - - - 9.3 1009.8 0.0
18/09:00am WSW 7 13 - - - - - - - 8.2 1009.6 0.4
18/08:30am W 6 9 - - - - - - - 7.6 1009.3 0.4
18/08:00am WSW 11 16 - - - - - - - 7.0 1008.6 0.4
18/07:30am WSW 10 15 - - - - - - - 7.4 1008.4 0.4
18/07:00am WSW 9 15 - - - - - - - 7.4 1008.2 0.4
18/06:30am WSW 13 23 - - - - - - - 7.9 1007.4 0.4
18/06:00am WSW 13 19 - - - - - - - 7.6 1007.1 0.4
18/05:30am WSW 11 20 - - - - - - - 7.2 1006.5 0.4
18/05:00am WSW 14 22 - - - - - - - 7.5 1005.7 0.4
18/04:30am WSW 13 22 - - - - - - - 7.4 1005.4 0.4
18/04:00am WSW 10 20 - - - - - - - 7.3 1005.4 0.4
18/03:30am WSW 11 18 - - - - - - - 7.3 1004.7 0.4
18/03:00am WSW 11 18 - - - - - - - 7.3 1004.6 0.4
18/02:30am WSW 11 21 - - - - - - - 7.3 1004.1 0.4
18/02:00am WSW 13 20 - - - - - - - 7.3 1003.7 0.4
18/01:30am WSW 11 19 - - - - - - - 7.2 1003.2 0.4
18/01:00am WSW 9 15 - - - - - - - 7.3 1003.1 0.4
18/12:30am WSW 13 21 - - - - - - - 7.8 1002.0 0.4
18/12:00am WSW 8 15 - - - - - - - 7.6 1002.0 0.4
 
Date/Time
EST
Wind Sea
Height
m
Swell Vis
km
Cloud Weather Temp
°C
Press
hPa
Rain since
9am
mm
Dir  Spd
kts
Gust
kts
Height
m
Period
s
Dir
17/11:30pm W 10 19 - - - - - - - 7.7 1001.1 0.4
17/11:00pm W 9 15 - - - - - - - 7.7 1001.5 0.4
17/10:30pm W 10 17 - - - - - - - 7.9 1001.1 0.4
17/10:00pm W 9 18 - - - - - - - 8.0 1001.1 0.4
17/09:30pm W 9 16 - - - - - - - 7.3 1000.6 0.4
17/09:00pm W 9 13 - - - - - - - 7.0 1000.6 0.4
17/08:30pm W 12 24 - - - - - - - 7.3 1000.3 0.4
17/08:00pm W 13 24 - - - - - - - 8.3 1000.3 0.4
17/07:53pm W 15 26 - - - - - - - 8.6 1000.2 0.4
17/07:30pm WSW 13 24 - - - - - - - 9.1 1000.1 0.4
17/07:00pm W 9 15 - - - - - - - 9.3 999.7 0.4
17/06:30pm W 10 16 - - - - - - - 9.5 999.2 0.4
17/06:00pm WSW 11 22 - - - - - - - 9.6 998.6 0.4
17/05:30pm WSW 10 23 - - - - - - - 9.3 998.0 0.4
17/05:00pm WSW 11 23 - - - - - - - 8.0 998.1 0.4
17/04:50pm WSW 15 32 - - - - - - - 8.8 998.4 0.2
17/04:30pm WSW 7 16 - - - - - - - 11.5 997.5 0.0
17/04:00pm W 9 23 - - - - - - - 12.6 996.9 0.0
17/03:30pm W 10 20 - - - - - - - 13.3 996.7 0.0
17/03:00pm WNW 15 23 - - - - - - - 14.6 997.0 0.0
17/02:30pm WNW 13 25 - - - - - - - 15.0 996.8 0.0
17/02:00pm WNW 15 32 - - - - - - - 14.3 997.0 0.0
17/01:37pm WNW 15 31 - - - - - - - 15.1 996.9 0.0
17/01:30pm WNW 11 22 - - - - - - - 15.4 997.2 0.0
17/01:00pm WNW 10 26 - - - - - - - 15.6 998.4 0.0
17/12:30pm NW 9 16 - - - - - - - 14.5 999.5 0.0
17/12:00pm NW 8 16 - - - - - - - 13.4 1000.5 0.0
17/11:30am NNW 5 10 - - - - - - - 13.5 1001.2 0.0
17/11:00am NNW 9 16 - - - - - - - 13.2 1002.1 0.0
17/10:30am NW 13 24 - - - - - - - 12.4 1002.8 0.0
17/10:00am NW 9 16 - - - - - - - 11.9 1003.1 0.0
17/09:30am NW 11 20 - - - - - - - 11.6 1003.5 0.0
17/09:00am WNW 11 23 - - - - - - - 11.3 1003.9 0.0
17/08:30am WNW 10 17 - - - - - - - 10.9 1004.4 0.0
17/08:00am WNW 9 15 - - - - - - - 10.8 1004.6 0.0
17/07:30am WNW 10 20 - - - - - - - 10.9 1004.9 0.0
17/07:00am WNW 10 19 - - - - - - - 10.9 1005.1 0.0
17/06:30am WNW 11 22 - - - - - - - 11.1 1005.7 0.0
17/06:00am WNW 10 17 - - - - - - - 11.1 1005.8 0.0
17/05:30am WNW 11 18 - - - - - - - 11.1 1005.4 0.0
17/05:00am WNW 11 20 - - - - - - - 11.0 1006.0 0.0
17/04:30am WNW 8 19 - - - - - - - 10.8 1006.6 0.0
17/04:00am WNW 6 10 - - - - - - - 11.1 1007.2 0.0
17/03:30am WNW 9 19 - - - - - - - 11.2 1007.4 0.0
17/03:00am WNW 3 7 - - - - - - - 10.7 1007.8 0.0
17/02:30am WNW 4 7 - - - - - - - 10.9 1008.1 0.0
17/02:00am WNW 4 7 - - - - - - - 11.0 1008.4 0.0
17/01:30am WNW 8 15 - - - - - - - 11.2 1008.5 0.0
17/01:00am WNW 7 12 - - - - - - - 11.3 1008.6 0.0
17/12:30am W 5 9 - - - - - - - 11.3 1009.0 0.0
17/12:00am W 6 11 - - - - - - - 11.6 1009.5 0.0
 
Date/Time
EST
Wind Sea
Height
m
Swell Vis
km
Cloud Weather Temp
°C
Press
hPa
Rain since
9am
mm
Dir  Spd
kts
Gust
kts
Height
m
Period
s
Dir
16/11:30pm W 6 12 - - - - - - - 11.9 1009.7 0.0
16/11:00pm NW 4 8 - - - - - - - 11.4 1010.0 0.0
16/10:30pm NW 2 4 - - - - - - - 10.6 1010.1 0.0
16/10:00pm WNW 3 6 - - - - - - - 11.2 1010.4 0.0
16/09:30pm WNW 4 5 - - - - - - - 11.2 1010.6 0.0
16/09:00pm W 5 7 - - - - - - - 10.9 1010.9 0.0

Other formats

Comma delimited format used in spreadsheet applications
http://www.bom.gov.au/fwo/IDT60701/IDT60701.94987.axf

JavaScript Object Notation format (JSON) in row-major order
http://www.bom.gov.au/fwo/IDT60701/IDT60701.94987.json

Data quality

Most of these data are generated automatically and are frequently updated. Quality checks on data are not normally performed. It is possible for incorrect values to appear. Refer to information at About Latest Weather Observations and please check the disclaimer before using these data.